Latest Weather Observations for Viewbank

IDV60901

Issued at 10:31 pm EDT Thursday 23 February 2017 (issued every 10 minutes, with the page automatically refreshed every 10 minutes)

About weather observations | Map of Melbourne area stations | Latest observations for Melbourne area | Other Formats
Station Details ID: 086068 Name: VIEWBANK Lat: -37.74 Lon: 145.10 Height: 66.1 m
Data from the previous 72 hours. | See also: Recent months at Viewbank
Date/Time
EDT
Temp
°C
App
Temp
°C
Dew
Point
°C
Rel
Hum
%
Delta-T
°C
Wind Press
QNH
hPa
Press
MSL
hPa
Rain since
9am
mm
Dir  Spd
km/h
Gust
km/h
Spd
kts
Gust
kts
23/10:30pm 18.0 17.7 14.5 80 2.0 S 9 17 5 9 1022.4 1022.2 0.0
23/10:00pm 17.9 17.4 15.0 83 1.7 SW 11 20 6 11 1022.2 1022.0 0.0
23/09:30pm 18.0 16.9 14.3 79 2.1 SSW 13 20 7 11 1021.8 1021.6 0.0
23/09:00pm 18.2 17.4 14.1 77 2.3 SW 11 17 6 9 1021.2 1021.0 0.0
23/08:30pm 18.8 17.2 13.9 73 2.8 SW 15 24 8 13 1020.5 1020.3 0.0
23/08:00pm 19.7 17.0 13.4 67 3.6 SW 20 32 11 17 1020.0 1019.8 0.0
23/07:30pm 22.0 20.1 13.1 57 5.1 WSW 15 28 8 15 1019.3 1019.1 0.0
23/07:00pm 23.7 21.1 12.0 48 6.6 W 17 22 9 12 1018.9 1018.7 0.0
23/06:30pm 24.4 22.1 11.7 45 7.2 W 15 24 8 13 1018.4 1018.2 0.0
23/06:00pm 25.4 23.3 12.3 44 7.5 W 15 28 8 15 1018.1 1017.9 0.0
23/05:30pm 25.3 23.0 11.8 43 7.7 W 15 26 8 14 1017.9 1017.7 0.0
23/05:00pm 26.1 24.4 12.5 42 7.9 WSW 13 24 7 13 1017.4 1017.2 0.0
23/04:30pm 25.4 23.1 11.9 43 7.7 SW 15 22 8 12 1017.6 1017.4 0.0
23/04:00pm 25.2 23.2 12.8 46 7.2 SW 15 24 8 13 1017.6 1017.4 0.0
23/03:30pm 25.9 24.1 13.4 46 7.3 SW 15 22 8 12 1017.8 1017.6 0.0
23/03:00pm 25.0 23.2 12.2 44 7.3 SW 13 24 7 13 1017.9 1017.7 0.0
23/02:30pm 25.4 24.2 12.9 45 7.3 SSW 11 19 6 10 1018.0 1017.8 0.0
23/02:00pm 24.9 23.5 13.5 49 6.7 SW 13 26 7 14 1018.1 1017.9 0.0
23/01:30pm 24.6 23.0 12.9 48 6.8 WSW 13 24 7 13 1018.1 1017.9 0.0
23/01:00pm 24.1 21.6 12.4 48 6.7 SW 17 28 9 15 1018.1 1017.9 0.0
23/12:30pm 23.7 21.8 11.7 47 6.8 W 13 20 7 11 1018.3 1018.1 0.0
23/12:00pm 23.3 21.5 12.0 49 6.4 WSW 13 19 7 10 1018.3 1018.1 0.0
23/11:30am 23.3 21.6 12.3 50 6.3 WSW 13 24 7 13 1018.4 1018.2 0.0
23/11:00am 21.5 19.1 11.5 53 5.6 W 15 24 8 13 1018.3 1018.1 0.0
23/10:30am 21.5 19.9 12.9 58 4.9 WSW 13 22 7 12 1018.1 1017.9 0.0
23/10:00am 20.6 18.6 12.6 60 4.5 SW 15 24 8 13 1017.9 1017.7 0.0
23/09:30am 20.4 19.0 13.4 64 4.0 SW 13 24 7 13 1017.4 1017.2 0.0
23/09:00am 18.5 19.8 14.0 75 2.6 CALM 0 0 0 0 1017.2 1017.0 0.0
23/08:30am 17.5 19.0 14.6 83 1.7 CALM 0 0 0 0 1016.7 1016.5 0.0
23/08:00am 15.6 16.9 14.1 91 0.8 CALM 0 6 0 3 1016.2 1015.9 0.0
23/07:30am 14.5 15.7 13.7 95 0.4 CALM 0 0 0 0 1015.5 1015.2 0.0
23/07:00am 14.3 15.6 14.0 98 0.2 CALM 0 0 0 0 1014.9 1014.6 0.0
23/06:30am 14.5 15.7 13.9 96 0.3 CALM 0 0 0 0 1014.4 1014.1 0.0
23/06:00am 15.0 16.3 14.0 94 0.6 CALM 0 6 0 3 1014.0 1013.7 0.0
23/05:30am 15.1 16.4 14.0 93 0.6 CALM 0 7 0 4 1013.7 1013.4 0.0
23/05:00am 15.7 16.6 14.1 90 0.9 N 2 7 1 4 1013.5 1013.2 0.0
23/04:30am 16.0 15.9 14.0 88 1.1 N 7 7 4 4 1013.2 1012.9 0.0
23/04:00am 16.2 16.3 14.0 87 1.2 N 6 9 3 5 1013.1 1012.8 0.0
23/03:30am 16.8 17.8 13.3 80 2.0 CALM 0 0 0 0 1013.0 1012.7 0.0
23/03:00am 17.5 18.7 13.8 79 2.1 CALM 0 4 0 2 1013.0 1012.7 0.0
23/02:30am 17.7 18.9 13.8 78 2.2 CALM 0 4 0 2 1013.1 1012.8 0.0
23/02:00am 18.0 19.2 13.7 76 2.5 CALM 0 0 0 0 1013.0 1012.7 0.0
23/01:30am 18.8 18.9 13.9 73 2.8 NNE 6 7 3 4 1012.8 1012.5 0.0
23/01:00am 18.6 18.5 13.9 74 2.7 WSW 7 9 4 5 1012.4 1012.1 0.0
23/12:30am 18.9 18.9 13.7 72 3.0 SW 6 20 3 11 1012.0 1011.8 0.0
23/12:00am 19.2 17.2 14.0 72 3.0 SW 17 32 9 17 1011.7 1011.5 0.0
 
Date/Time
EDT
Temp
°C
App
Temp
°C
Dew
Point
°C
Rel
Hum
%
Delta-T
°C
Wind Press
QNH
hPa
Press
MSL
hPa
Rain since
9am
mm
Dir  Spd
km/h
Gust
km/h
Spd
kts
Gust
kts
22/11:30pm 20.3 17.0 14.0 67 3.6 SW 24 44 13 24 1010.8 1010.6 0.0
22/11:21pm 22.0 18.9 12.3 54 5.5 SW 20 43 11 23 1010.1 1009.9 0.0
22/11:00pm 27.0 24.0 4.1 23 11.6 NNW 9 13 5 7 1008.9 1008.7 0.0
22/10:30pm 28.3 24.9 3.9 21 12.4 NNE 11 15 6 8 1008.7 1008.5 0.0
22/10:00pm 28.0 25.4 4.3 22 12.1 NE 7 13 4 7 1008.6 1008.4 0.0
22/09:30pm 28.0 25.6 4.3 22 12.1 NNE 6 11 3 6 1008.4 1008.2 0.0
22/09:00pm 28.6 26.0 4.2 21 12.5 NNE 7 13 4 7 1008.3 1008.1 0.0
22/08:30pm 29.8 27.1 3.7 19 13.3 NNE 7 15 4 8 1008.2 1008.0 0.0
22/08:00pm 31.0 27.8 3.1 17 14.2 NNE 9 17 5 9 1008.1 1007.9 0.0
22/07:30pm 32.0 27.9 2.1 15 15.0 NE 13 20 7 11 1007.9 1007.7 0.0
22/07:00pm 32.4 28.1 3.4 16 15.0 NE 15 28 8 15 1008.0 1007.8 0.0
22/06:30pm 32.7 28.1 3.6 16 15.1 NNE 17 32 9 17 1008.5 1008.3 0.0
22/06:00pm 33.0 27.5 3.9 16 15.2 N 22 41 12 22 1009.0 1008.8 0.0
22/05:47pm 32.7 26.0 3.6 16 15.1 N 28 48 15 26 1009.0 1008.8 0.0
22/05:30pm 32.1 26.6 4.0 17 14.6 NNE 22 41 12 22 1008.6 1008.4 0.0
22/05:00pm 31.6 26.8 4.4 18 14.2 N 19 33 10 18 1009.3 1009.1 0.0
22/04:30pm 31.9 28.0 5.4 19 14.1 NNE 15 33 8 18 1009.4 1009.2 0.0
22/04:00pm 32.2 27.6 5.7 19 14.2 NNE 19 35 10 19 1009.5 1009.3 0.0
22/03:30pm 31.9 27.0 6.9 21 13.6 NNE 22 44 12 24 1010.3 1010.1 0.0
22/03:00pm 31.4 25.9 5.8 20 13.7 N 24 39 13 21 1011.3 1011.1 0.0
22/02:30pm 31.4 26.8 5.8 20 13.6 NNE 19 35 10 19 1011.7 1011.5 0.0
22/02:00pm 30.2 25.4 5.5 21 13.0 NNE 20 39 11 21 1012.1 1011.9 0.0
22/01:30pm 29.8 24.8 6.5 23 12.5 N 22 43 12 23 1012.9 1012.6 0.0
22/01:00pm 29.4 24.3 6.1 23 12.3 N 22 39 12 21 1013.4 1013.1 0.0
22/12:30pm 29.1 26.2 8.2 27 11.4 NE 13 26 7 14 1013.9 1013.6 0.0
22/12:00pm 27.6 24.5 9.0 31 10.2 E 15 33 8 18 1014.5 1014.2 0.0
22/11:30am 26.5 22.8 8.0 31 10.0 ENE 17 28 9 15 1014.8 1014.5 0.0
22/11:00am 25.4 22.1 6.6 30 9.8 ENE 13 24 7 13 1015.3 1015.0 0.0
22/10:30am 24.7 20.8 5.5 29 9.8 ENE 15 26 8 14 1015.3 1015.0 0.0
22/10:00am 22.4 20.9 9.2 43 7.1 E 7 11 4 6 1015.5 1015.2 0.0
22/09:30am 19.6 18.2 9.5 52 5.4 ENE 7 11 4 6 1015.6 1015.3 0.0
22/09:00am 16.3 14.9 9.7 65 3.5 E 7 9 4 5 1015.9 1015.6 0.0
22/08:30am 14.3 13.0 9.3 72 2.6 ENE 6 7 3 4 1015.8 1015.5 0.0
22/08:00am 12.3 11.7 8.8 79 1.8 ENE 2 7 1 4 1015.9 1015.6 0.0
22/07:30am 11.5 10.0 8.5 82 1.5 ENE 6 9 3 5 1015.8 1015.5 0.0
22/07:00am 10.5 9.7 8.1 85 1.2 ENE 2 7 1 4 1015.8 1015.5 0.0
22/06:30am 10.6 9.0 8.2 85 1.2 ENE 6 9 3 5 1015.5 1015.2 0.0
22/06:00am 11.0 9.3 8.4 84 1.3 ENE 7 15 4 8 1015.3 1015.0 0.0
22/05:30am 10.7 10.3 8.3 85 1.2 CALM 0 0 0 0 1015.4 1015.1 0.0
22/05:00am 10.5 9.0 8.4 87 1.0 ENE 6 9 3 5 1015.5 1015.2 0.0
22/04:30am 11.1 9.7 8.8 86 1.1 ENE 6 11 3 6 1015.8 1015.5 0.0
22/04:00am 11.4 11.2 9.0 85 1.2 CALM 0 2 0 1 1016.1 1015.8 0.0
22/03:30am 11.9 11.7 9.1 83 1.4 CALM 0 2 0 1 1016.4 1016.1 0.0
22/03:00am 12.3 12.3 9.7 84 1.3 CALM 0 4 0 2 1016.6 1016.4 0.0
22/02:30am 12.8 12.8 9.8 82 1.5 CALM 0 6 0 3 1016.9 1016.7 0.0
22/02:00am 13.1 12.9 10.5 84 1.4 NE 2 7 1 4 1017.1 1016.9 0.0
22/01:30am 13.9 13.2 10.1 78 2.0 NE 4 7 2 4 1017.5 1017.3 0.0
22/01:00am 14.1 14.3 10.5 79 1.9 CALM 0 0 0 0 1017.7 1017.5 0.0
22/12:30am 15.0 15.3 11.0 77 2.1 CALM 0 0 0 0 1018.0 1017.8 0.0
22/12:00am 15.9 16.2 10.9 72 2.7 CALM 0 0 0 0 1018.1 1017.9 0.0
 
Date/Time
EDT
Temp
°C
App
Temp
°C
Dew
Point
°C
Rel
Hum
%
Delta-T
°C
Wind Press
QNH
hPa
Press
MSL
hPa
Rain since
9am
mm
Dir  Spd
km/h
Gust
km/h
Spd
kts
Gust
kts
21/11:30pm 16.2 16.4 10.7 70 2.9 CALM 0 6 0 3 1018.2 1018.0 0.0
21/11:00pm 17.3 16.0 11.1 67 3.3 SSE 9 11 5 6 1018.3 1018.1 0.0
21/10:30pm 17.0 16.3 11.3 69 3.1 E 6 9 3 5 1018.4 1018.2 0.0
21/10:00pm 17.5 17.5 11.3 67 3.4 SSE 2 6 1 3 1018.4 1018.2 0.0
21/09:30pm 18.0 18.0 11.3 65 3.7 SE 2 7 1 4 1018.1 1017.9 0.0
21/09:00pm 19.0 19.0 11.3 61 4.2 SE 2 9 1 5 1017.9 1017.7 0.0
21/08:30pm 19.9 18.6 11.1 57 4.8 SE 9 17 5 9 1017.5 1017.3 0.0
21/08:00pm 20.9 19.4 10.7 52 5.6 SE 9 17 5 9 1017.3 1017.1 0.0
21/07:30pm 22.3 20.6 9.8 45 6.8 SE 9 17 5 9 1017.2 1017.0 0.0
21/07:00pm 23.9 21.1 5.3 30 9.4 SE 9 15 5 8 1017.2 1017.0 0.0
21/06:30pm 24.4 21.9 4.7 28 9.9 ESE 7 11 4 6 1017.1 1016.9 0.0
21/06:00pm 24.7 22.1 3.4 25 10.4 SSE 6 9 3 5 1017.1 1016.9 0.0
21/05:30pm 24.6 22.0 4.4 27 10.1 N 7 15 4 8 1017.5 1017.3 0.0
21/05:00pm 24.3 21.6 3.6 26 10.1 ESE 7 11 4 6 1017.9 1017.7 0.0
21/04:30pm 24.4 21.8 4.2 27 10.0 SW 7 13 4 7 1018.2 1018.0 0.0
21/04:00pm 23.5 20.8 2.9 26 9.9 E 6 9 3 5 1018.6 1018.4 0.0
21/03:30pm 23.4 21.0 5.3 31 9.1 ENE 7 11 4 6 1019.1 1018.9 0.0
21/03:00pm 23.0 20.9 5.9 33 8.7 SSE 6 11 3 6 1019.4 1019.2 0.0
21/02:30pm 22.3 20.0 4.8 32 8.7 SW 6 9 3 5 1019.8 1019.6 0.0
21/02:00pm 22.1 20.0 6.7 37 7.9 WSW 7 13 4 7 1020.0 1019.8 0.0
21/01:30pm 21.2 19.2 6.3 38 7.5 SW 6 9 3 5 1020.5 1020.3 0.0
21/01:00pm 20.9 18.7 6.4 39 7.3 SW 7 11 4 6 1021.1 1020.9 0.0
21/12:30pm 20.4 18.7 8.4 46 6.3 SSW 7 13 4 7 1021.3 1021.1 0.0
21/12:00pm 19.6 17.7 7.7 46 6.1 SW 7 13 4 7 1021.6 1021.4 0.0
21/11:30am 18.2 16.4 7.3 49 5.5 SSE 6 9 3 5 1021.5 1021.3 0.0
21/11:00am 18.2 16.8 8.7 54 4.9 SW 6 9 3 5 1021.8 1021.6 0.0
21/10:30am 16.1 14.8 9.3 64 3.5 WNW 6 7 3 4 1022.0 1021.8 0.0
21/10:00am 15.3 14.1 9.4 68 3.0 ENE 6 11 3 6 1022.1 1021.9 0.0
21/09:30am 14.7 14.3 9.7 72 2.6 ENE 2 9 1 5 1021.9 1021.7 0.0
21/09:00am 13.2 12.0 9.6 79 1.8 ESE 6 7 3 4 1021.7 1021.5 0.0
21/08:30am 11.2 9.9 9.3 88 1.0 E 6 7 3 4 1021.5 1021.3 -
21/08:00am 9.4 9.3 9.3 99 0.0 CALM 0 0 0 0 1021.2 1021.0 -
21/07:30am 7.9 7.4 7.8 99 0.0 CALM 0 0 0 0 1020.8 1020.6 -
21/07:00am 7.8 7.3 7.7 99 0.0 CALM 0 6 0 3 1020.3 1020.1 -
21/06:30am 8.1 7.6 8.0 99 0.0 CALM 0 6 0 3 1019.8 1019.6 -
21/06:00am 8.3 7.9 8.2 99 0.0 CALM 0 6 0 3 1019.6 1019.4 -
21/05:30am 8.5 7.7 8.1 97 0.2 E 2 7 1 4 1019.5 1019.3 -
21/05:00am 9.1 8.3 8.2 94 0.4 NE 2 6 1 3 1019.4 1019.2 -
21/04:30am 9.4 8.9 8.0 91 0.7 CALM 0 0 0 0 1019.2 1019.0 -
21/04:00am 9.9 8.3 8.0 88 0.9 NE 6 7 3 4 1019.1 1018.9 -
21/03:30am 10.3 9.4 7.9 85 1.2 N 2 7 1 4 1019.1 1018.9 -
21/03:00am 10.8 10.3 7.9 82 1.4 CALM 0 0 0 0 1018.8 1018.6 -
21/02:30am 11.1 9.5 7.8 80 1.6 WNW 6 11 3 6 1018.8 1018.6 -
21/02:00am 11.5 9.6 7.6 77 1.9 WNW 7 11 4 6 1018.9 1018.7 -
21/01:30am 12.1 10.4 7.6 74 2.2 WNW 6 9 3 5 1019.0 1018.8 -
21/01:00am 12.3 10.0 7.6 73 2.3 WNW 9 13 5 7 1019.1 1018.9 -
21/12:30am 12.8 10.9 7.7 71 2.5 WNW 7 13 4 7 1019.0 1018.8 -
21/12:00am 13.6 11.5 8.2 70 2.7 WNW 9 17 5 9 1018.9 - 0.0
 
Date/Time
EDT
Temp
°C
App
Temp
°C
Dew
Point
°C
Rel
Hum
%
Delta-T
°C
Wind Press
QNH
hPa
Press
MSL
hPa
Rain since
9am
mm
Dir  Spd
km/h
Gust
km/h
Spd
kts
Gust
kts
20/11:30pm 13.8 12.0 9.3 74 2.3 WNW 9 13 5 7 1018.9 1018.7 0.0
20/11:00pm 14.3 14.1 10.5 78 2.0 WNW 2 7 1 4 1018.7 1018.5 0.0

Latest Capital City Observations: Canberra | Sydney | Melbourne | Brisbane | Adelaide | Perth | Hobart | Darwin

Other Formats:

Comma delimited format used in spreadsheet applications
http://www.bom.gov.au/fwo/IDV60901/IDV60901.95874.axf

JavaScript Object Notation format (JSON) in row-major order
http://www.bom.gov.au/fwo/IDV60901/IDV60901.95874.json